createdAt,value
2018-12-26T00:55:23.305Z,-1.00
2018-12-26T02:37:06.257Z,-1.20
2018-12-26T10:36:14.583Z,3.30
2018-12-26T13:29:42.329Z,3.50
2018-12-26T13:39:43.584Z,3.10
2018-12-26T13:49:44.830Z,2.80
2018-12-26T13:59:46.082Z,2.50
2018-12-26T14:09:47.316Z,2.50
2018-12-26T14:19:48.581Z,2.50
2018-12-26T14:29:49.863Z,2.60
2018-12-26T14:39:51.153Z,2.40
2018-12-26T14:49:52.440Z,2.00
2018-12-26T14:59:53.724Z,1.60
2018-12-26T15:09:55.017Z,1.40
2018-12-26T15:19:56.314Z,1.00
2018-12-26T15:29:57.573Z,1.00
2018-12-26T15:39:58.830Z,0.70
2018-12-26T15:50:00.085Z,0.40
2018-12-26T16:00:01.382Z,0.00
2018-12-26T16:10:05.330Z,-0.40
2018-12-26T16:20:05.551Z,-0.50
2018-12-26T16:30:06.824Z,-0.50
2018-12-26T16:40:08.140Z,-0.40
2018-12-26T16:50:09.496Z,-0.60
2018-12-26T17:00:11.533Z,-0.90
2018-12-26T17:10:12.784Z,-0.90
2018-12-26T17:20:14.120Z,-1.10
2018-12-26T17:30:15.497Z,-1.20
2018-12-26T17:40:16.783Z,-1.40
2018-12-26T17:50:18.831Z,-1.40
2018-12-26T18:00:20.111Z,-1.40
2018-12-26T18:10:21.408Z,-1.60
2018-12-26T18:20:22.693Z,-1.60
2018-12-26T18:30:24.125Z,-1.60
2018-12-26T18:40:25.545Z,-1.80
2018-12-26T18:50:26.877Z,-1.80
2018-12-26T19:00:28.513Z,-1.90
2018-12-26T19:10:29.777Z,-2.10
2018-12-26T19:20:31.122Z,-2.30
2018-12-26T19:30:32.500Z,-2.20
2018-12-26T19:40:33.778Z,-2.20
2018-12-26T19:50:35.842Z,-2.50
2018-12-26T20:00:37.127Z,-2.50
2018-12-26T20:10:38.442Z,-2.80
2018-12-26T20:20:39.880Z,-2.70
2018-12-26T20:30:41.169Z,-2.60
2018-12-26T20:40:42.482Z,-2.70
2018-12-26T20:50:43.865Z,-2.70
2018-12-26T21:00:45.173Z,-2.90
2018-12-26T21:10:46.473Z,-2.80
2018-12-26T21:20:49.560Z,-3.00
2018-12-26T21:30:49.038Z,-3.20
2018-12-26T21:40:50.460Z,-3.20
